sensor_id;sensor_type;location;lat;lon;timestamp;P1;durP1;ratioP1;P2;durP2;ratioP2
2019;SDS011;1014;51.960;8.542;2024-02-16T00:01:25;20.40;;;19.20;;
2019;SDS011;1014;51.960;8.542;2024-02-16T00:03:52;21.17;;;20.10;;
2019;SDS011;1014;51.960;8.542;2024-02-16T00:06:19;19.97;;;18.77;;
2019;SDS011;1014;51.960;8.542;2024-02-16T00:08:46;20.37;;;19.17;;
2019;SDS011;1014;51.960;8.542;2024-02-16T00:11:14;20.50;;;19.40;;
2019;SDS011;1014;51.960;8.542;2024-02-16T00:13:41;22.33;;;20.57;;
2019;SDS011;1014;51.960;8.542;2024-02-16T00:16:08;20.03;;;19.03;;
2019;SDS011;1014;51.960;8.542;2024-02-16T00:18:35;20.07;;;19.00;;
2019;SDS011;1014;51.960;8.542;2024-02-16T00:21:02;21.00;;;19.93;;
2019;SDS011;1014;51.960;8.542;2024-02-16T00:23:30;19.77;;;18.83;;
2019;SDS011;1014;51.960;8.542;2024-02-16T00:26:00;20.63;;;19.63;;
2019;SDS011;1014;51.960;8.542;2024-02-16T00:28:28;21.37;;;20.07;;
2019;SDS011;1014;51.960;8.542;2024-02-16T00:30:55;20.63;;;19.63;;
2019;SDS011;1014;51.960;8.542;2024-02-16T00:33:22;20.93;;;19.83;;
2019;SDS011;1014;51.960;8.542;2024-02-16T00:35:49;22.20;;;21.07;;
2019;SDS011;1014;51.960;8.542;2024-02-16T00:38:18;20.93;;;19.93;;
2019;SDS011;1014;51.960;8.542;2024-02-16T00:40:45;21.03;;;19.83;;
2019;SDS011;1014;51.960;8.542;2024-02-16T00:43:11;21.40;;;20.30;;
2019;SDS011;1014;51.960;8.542;2024-02-16T00:45:40;21.93;;;20.43;;
2019;SDS011;1014;51.960;8.542;2024-02-16T00:48:09;21.53;;;20.53;;
2019;SDS011;1014;51.960;8.542;2024-02-16T00:50:36;21.23;;;20.13;;
2019;SDS011;1014;51.960;8.542;2024-02-16T00:53:03;20.90;;;19.90;;
2019;SDS011;1014;51.960;8.542;2024-02-16T00:55:30;20.53;;;19.43;;
2019;SDS011;1014;51.960;8.542;2024-02-16T00:57:57;21.00;;;20.00;;
2019;SDS011;1014;51.960;8.542;2024-02-16T01:00:24;19.70;;;18.60;;
2019;SDS011;1014;51.960;8.542;2024-02-16T01:02:52;19.57;;;18.57;;
2019;SDS011;1014;51.960;8.542;2024-02-16T01:05:19;21.67;;;20.50;;
2019;SDS011;1014;51.960;8.542;2024-02-16T01:07:48;22.00;;;21.00;;
2019;SDS011;1014;51.960;8.542;2024-02-16T01:10:15;21.30;;;20.27;;
2019;SDS011;1014;51.960;8.542;2024-02-16T01:12:42;20.63;;;19.53;;
2019;SDS011;1014;51.960;8.542;2024-02-16T01:15:09;22.10;;;20.90;;
2019;SDS011;1014;51.960;8.542;2024-02-16T01:17:36;20.00;;;19.00;;
2019;SDS011;1014;51.960;8.542;2024-02-16T01:20:06;19.93;;;18.73;;
2019;SDS011;1014;51.960;8.542;2024-02-16T01:22:35;20.43;;;19.20;;
2019;SDS011;1014;51.960;8.542;2024-02-16T01:25:02;21.30;;;20.20;;
2019;SDS011;1014;51.960;8.542;2024-02-16T01:27:29;21.13;;;19.60;;
2019;SDS011;1014;51.960;8.542;2024-02-16T01:29:57;21.80;;;20.30;;
2019;SDS011;1014;51.960;8.542;2024-02-16T01:32:25;20.83;;;19.70;;
2019;SDS011;1014;51.960;8.542;2024-02-16T01:34:52;21.00;;;19.90;;
2019;SDS011;1014;51.960;8.542;2024-02-16T01:37:20;20.93;;;19.93;;
2019;SDS011;1014;51.960;8.542;2024-02-16T01:39:47;21.63;;;20.23;;
2019;SDS011;1014;51.960;8.542;2024-02-16T01:42:14;20.77;;;19.67;;
2019;SDS011;1014;51.960;8.542;2024-02-16T01:44:41;21.63;;;20.53;;
2019;SDS011;1014;51.960;8.542;2024-02-16T01:47:08;23.70;;;22.50;;
2019;SDS011;1014;51.960;8.542;2024-02-16T01:49:35;22.37;;;21.27;;
2019;SDS011;1014;51.960;8.542;2024-02-16T01:52:02;22.03;;;20.90;;
2019;SDS011;1014;51.960;8.542;2024-02-16T01:54:30;21.80;;;20.70;;
2019;SDS011;1014;51.960;8.542;2024-02-16T01:56:58;23.27;;;21.97;;
2019;SDS011;1014;51.960;8.542;2024-02-16T01:59:25;22.30;;;21.03;;
2019;SDS011;1014;51.960;8.542;2024-02-16T02:01:52;22.47;;;21.30;;
2019;SDS011;1014;51.960;8.542;2024-02-16T02:04:19;23.63;;;22.10;;
2019;SDS011;1014;51.960;8.542;2024-02-16T02:06:46;22.93;;;21.70;;
2019;SDS011;1014;51.960;8.542;2024-02-16T02:09:13;22.10;;;21.00;;
2019;SDS011;1014;51.960;8.542;2024-02-16T02:11:41;22.80;;;21.43;;
2019;SDS011;1014;51.960;8.542;2024-02-16T02:14:08;22.37;;;21.17;;
2019;SDS011;1014;51.960;8.542;2024-02-16T02:16:36;23.80;;;22.53;;
2019;SDS011;1014;51.960;8.542;2024-02-16T02:19:04;23.10;;;22.10;;
2019;SDS011;1014;51.960;8.542;2024-02-16T02:21:31;24.23;;;22.73;;
2019;SDS011;1014;51.960;8.542;2024-02-16T02:23:59;22.13;;;21.07;;
2019;SDS011;1014;51.960;8.542;2024-02-16T02:26:26;22.40;;;21.23;;
2019;SDS011;1014;51.960;8.542;2024-02-16T02:28:53;23.80;;;22.47;;
2019;SDS011;1014;51.960;8.542;2024-02-16T02:31:20;23.27;;;21.83;;
2019;SDS011;1014;51.960;8.542;2024-02-16T02:33:47;22.43;;;21.30;;
2019;SDS011;1014;51.960;8.542;2024-02-16T02:36:14;22.33;;;21.33;;
2019;SDS011;1014;51.960;8.542;2024-02-16T02:38:41;23.13;;;21.77;;
2019;SDS011;1014;51.960;8.542;2024-02-16T02:41:20;23.67;;;22.10;;
2019;SDS011;1014;51.960;8.542;2024-02-16T02:43:47;22.47;;;21.27;;
2019;SDS011;1014;51.960;8.542;2024-02-16T02:46:14;22.40;;;21.00;;
2019;SDS011;1014;51.960;8.542;2024-02-16T02:48:42;21.00;;;19.90;;
2019;SDS011;1014;51.960;8.542;2024-02-16T02:51:09;20.87;;;19.70;;
2019;SDS011;1014;51.960;8.542;2024-02-16T02:53:36;21.47;;;20.27;;
2019;SDS011;1014;51.960;8.542;2024-02-16T02:56:03;21.20;;;20.10;;
2019;SDS011;1014;51.960;8.542;2024-02-16T02:58:32;22.57;;;21.27;;
2019;SDS011;1014;51.960;8.542;2024-02-16T03:00:59;22.30;;;21.03;;
2019;SDS011;1014;51.960;8.542;2024-02-16T03:03:25;21.53;;;20.13;;
2019;SDS011;1014;51.960;8.542;2024-02-16T03:05:54;21.07;;;20.00;;
2019;SDS011;1014;51.960;8.542;2024-02-16T03:08:21;20.73;;;19.70;;
2019;SDS011;1014;51.960;8.542;2024-02-16T03:10:48;21.57;;;20.33;;
2019;SDS011;1014;51.960;8.542;2024-02-16T03:13:15;22.37;;;21.27;;
2019;SDS011;1014;51.960;8.542;2024-02-16T03:15:45;20.93;;;19.73;;
2019;SDS011;1014;51.960;8.542;2024-02-16T03:18:12;21.43;;;20.23;;
2019;SDS011;1014;51.960;8.542;2024-02-16T03:20:40;21.53;;;20.33;;
2019;SDS011;1014;51.960;8.542;2024-02-16T03:23:10;23.17;;;21.73;;
2019;SDS011;1014;51.960;8.542;2024-02-16T03:25:37;21.87;;;20.67;;
2019;SDS011;1014;51.960;8.542;2024-02-16T03:28:05;22.77;;;21.40;;
2019;SDS011;1014;51.960;8.542;2024-02-16T03:30:32;23.53;;;22.07;;
2019;SDS011;1014;51.960;8.542;2024-02-16T03:33:01;22.10;;;21.00;;
2019;SDS011;1014;51.960;8.542;2024-02-16T03:35:28;22.57;;;21.27;;
2019;SDS011;1014;51.960;8.542;2024-02-16T03:37:55;22.30;;;21.10;;
2019;SDS011;1014;51.960;8.542;2024-02-16T03:40:22;22.53;;;21.23;;
2019;SDS011;1014;51.960;8.542;2024-02-16T03:42:49;24.30;;;23.13;;
2019;SDS011;1014;51.960;8.542;2024-02-16T03:45:16;23.23;;;21.67;;
2019;SDS011;1014;51.960;8.542;2024-02-16T03:47:44;21.93;;;20.83;;
2019;SDS011;1014;51.960;8.542;2024-02-16T03:50:15;22.13;;;21.00;;
2019;SDS011;1014;51.960;8.542;2024-02-16T03:52:42;22.50;;;21.50;;
2019;SDS011;1014;51.960;8.542;2024-02-16T03:55:09;23.67;;;22.27;;
2019;SDS011;1014;51.960;8.542;2024-02-16T03:57:37;22.83;;;21.60;;
2019;SDS011;1014;51.960;8.542;2024-02-16T04:00:04;21.33;;;20.33;;
2019;SDS011;1014;51.960;8.542;2024-02-16T04:02:32;22.73;;;21.43;;
2019;SDS011;1014;51.960;8.542;2024-02-16T04:04:59;23.10;;;22.00;;
2019;SDS011;1014;51.960;8.542;2024-02-16T04:07:27;23.47;;;22.30;;
2019;SDS011;1014;51.960;8.542;2024-02-16T04:09:54;23.80;;;22.30;;
2019;SDS011;1014;51.960;8.542;2024-02-16T04:12:21;22.73;;;21.43;;
2019;SDS011;1014;51.960;8.542;2024-02-16T04:14:48;24.40;;;23.27;;
2019;SDS011;1014;51.960;8.542;2024-02-16T04:17:15;24.13;;;22.77;;
2019;SDS011;1014;51.960;8.542;2024-02-16T04:19:43;24.60;;;23.37;;
2019;SDS011;1014;51.960;8.542;2024-02-16T04:22:10;23.10;;;22.00;;
2019;SDS011;1014;51.960;8.542;2024-02-16T04:24:38;24.07;;;22.90;;
2019;SDS011;1014;51.960;8.542;2024-02-16T04:27:05;23.40;;;22.30;;
2019;SDS011;1014;51.960;8.542;2024-02-16T04:29:33;23.90;;;22.60;;
2019;SDS011;1014;51.960;8.542;2024-02-16T04:31:59;24.53;;;23.13;;
2019;SDS011;1014;51.960;8.542;2024-02-16T04:34:27;24.80;;;23.10;;
2019;SDS011;1014;51.960;8.542;2024-02-16T04:36:54;24.23;;;22.70;;
2019;SDS011;1014;51.960;8.542;2024-02-16T04:39:21;24.10;;;22.80;;
2019;SDS011;1014;51.960;8.542;2024-02-16T04:41:50;23.83;;;22.20;;
2019;SDS011;1014;51.960;8.542;2024-02-16T04:44:18;23.03;;;21.83;;
2019;SDS011;1014;51.960;8.542;2024-02-16T04:46:45;24.07;;;22.67;;
2019;SDS011;1014;51.960;8.542;2024-02-16T04:49:12;23.00;;;21.90;;
2019;SDS011;1014;51.960;8.542;2024-02-16T04:51:39;24.27;;;23.07;;
2019;SDS011;1014;51.960;8.542;2024-02-16T04:54:06;23.97;;;22.47;;
2019;SDS011;1014;51.960;8.542;2024-02-16T04:56:33;22.83;;;21.50;;
2019;SDS011;1014;51.960;8.542;2024-02-16T04:59:02;24.50;;;23.30;;
2019;SDS011;1014;51.960;8.542;2024-02-16T05:01:29;24.80;;;23.40;;
2019;SDS011;1014;51.960;8.542;2024-02-16T05:03:57;23.53;;;22.33;;
2019;SDS011;1014;51.960;8.542;2024-02-16T05:06:26;25.93;;;24.43;;
2019;SDS011;1014;51.960;8.542;2024-02-16T05:08:53;25.73;;;24.47;;
2019;SDS011;1014;51.960;8.542;2024-02-16T05:11:22;26.13;;;24.60;;
2019;SDS011;1014;51.960;8.542;2024-02-16T05:13:50;26.37;;;25.07;;
2019;SDS011;1014;51.960;8.542;2024-02-16T05:16:19;26.47;;;25.03;;
2019;SDS011;1014;51.960;8.542;2024-02-16T05:18:46;24.97;;;23.67;;
2019;SDS011;1014;51.960;8.542;2024-02-16T05:21:13;25.20;;;23.90;;
2019;SDS011;1014;51.960;8.542;2024-02-16T05:23:40;26.20;;;24.80;;
2019;SDS011;1014;51.960;8.542;2024-02-16T05:26:07;26.87;;;25.27;;
2019;SDS011;1014;51.960;8.542;2024-02-16T05:28:34;25.30;;;23.90;;
2019;SDS011;1014;51.960;8.542;2024-02-16T05:31:03;26.80;;;25.40;;
2019;SDS011;1014;51.960;8.542;2024-02-16T05:33:41;25.90;;;24.63;;
2019;SDS011;1014;51.960;8.542;2024-02-16T05:36:08;25.40;;;24.00;;
2019;SDS011;1014;51.960;8.542;2024-02-16T05:38:34;26.80;;;25.40;;
2019;SDS011;1014;51.960;8.542;2024-02-16T05:41:06;25.70;;;24.27;;
2019;SDS011;1014;51.960;8.542;2024-02-16T05:43:33;25.70;;;23.80;;
2019;SDS011;1014;51.960;8.542;2024-02-16T05:46:00;25.60;;;24.20;;
2019;SDS011;1014;51.960;8.542;2024-02-16T05:48:27;26.30;;;24.77;;
2019;SDS011;1014;51.960;8.542;2024-02-16T05:50:57;25.97;;;24.77;;
2019;SDS011;1014;51.960;8.542;2024-02-16T05:53:25;26.50;;;24.87;;
2019;SDS011;1014;51.960;8.542;2024-02-16T05:55:53;27.30;;;25.70;;
2019;SDS011;1014;51.960;8.542;2024-02-16T05:58:20;27.07;;;25.67;;
2019;SDS011;1014;51.960;8.542;2024-02-16T06:00:48;26.83;;;25.33;;
2019;SDS011;1014;51.960;8.542;2024-02-16T06:03:15;25.83;;;24.57;;
2019;SDS011;1014;51.960;8.542;2024-02-16T06:05:42;24.70;;;23.60;;
2019;SDS011;1014;51.960;8.542;2024-02-16T06:08:10;25.90;;;24.50;;
2019;SDS011;1014;51.960;8.542;2024-02-16T06:10:38;26.27;;;24.80;;
2019;SDS011;1014;51.960;8.542;2024-02-16T06:13:06;27.17;;;25.77;;
2019;SDS011;1014;51.960;8.542;2024-02-16T06:15:33;26.83;;;25.30;;
2019;SDS011;1014;51.960;8.542;2024-02-16T06:18:02;25.30;;;24.00;;
2019;SDS011;1014;51.960;8.542;2024-02-16T06:20:29;25.97;;;24.40;;
2019;SDS011;1014;51.960;8.542;2024-02-16T06:22:57;26.90;;;25.37;;
2019;SDS011;1014;51.960;8.542;2024-02-16T06:25:25;25.80;;;24.43;;
2019;SDS011;1014;51.960;8.542;2024-02-16T06:27:52;24.37;;;23.17;;
2019;SDS011;1014;51.960;8.542;2024-02-16T06:30:19;25.40;;;24.10;;
2019;SDS011;1014;51.960;8.542;2024-02-16T06:32:46;27.50;;;25.80;;
2019;SDS011;1014;51.960;8.542;2024-02-16T06:35:13;26.63;;;25.33;;
2019;SDS011;1014;51.960;8.542;2024-02-16T06:37:40;26.90;;;25.50;;
2019;SDS011;1014;51.960;8.542;2024-02-16T06:40:08;26.10;;;24.50;;
2019;SDS011;1014;51.960;8.542;2024-02-16T06:42:36;25.83;;;24.23;;
2019;SDS011;1014;51.960;8.542;2024-02-16T06:45:04;26.73;;;25.20;;
2019;SDS011;1014;51.960;8.542;2024-02-16T06:47:31;26.10;;;24.60;;
2019;SDS011;1014;51.960;8.542;2024-02-16T06:49:58;25.63;;;24.27;;
2019;SDS011;1014;51.960;8.542;2024-02-16T06:52:26;25.77;;;24.47;;
2019;SDS011;1014;51.960;8.542;2024-02-16T06:54:53;26.30;;;25.00;;
2019;SDS011;1014;51.960;8.542;2024-02-16T06:57:20;26.67;;;24.87;;
2019;SDS011;1014;51.960;8.542;2024-02-16T06:59:49;25.50;;;24.10;;
2019;SDS011;1014;51.960;8.542;2024-02-16T07:02:17;27.10;;;25.70;;
2019;SDS011;1014;51.960;8.542;2024-02-16T07:04:44;27.13;;;25.63;;
2019;SDS011;1014;51.960;8.542;2024-02-16T07:07:12;24.50;;;23.10;;
2019;SDS011;1014;51.960;8.542;2024-02-16T07:09:40;26.00;;;24.67;;
2019;SDS011;1014;51.960;8.542;2024-02-16T07:12:07;27.20;;;25.40;;
2019;SDS011;1014;51.960;8.542;2024-02-16T07:14:34;25.50;;;24.10;;
2019;SDS011;1014;51.960;8.542;2024-02-16T07:17:02;24.03;;;22.67;;
2019;SDS011;1014;51.960;8.542;2024-02-16T07:19:32;24.47;;;23.03;;
2019;SDS011;1014;51.960;8.542;2024-02-16T07:21:59;24.53;;;23.03;;
2019;SDS011;1014;51.960;8.542;2024-02-16T07:24:26;24.10;;;22.80;;
2019;SDS011;1014;51.960;8.542;2024-02-16T07:26:53;24.30;;;23.10;;
2019;SDS011;1014;51.960;8.542;2024-02-16T07:29:20;22.93;;;21.63;;
2019;SDS011;1014;51.960;8.542;2024-02-16T07:31:47;24.07;;;22.57;;
2019;SDS011;1014;51.960;8.542;2024-02-16T07:34:17;23.70;;;22.20;;
2019;SDS011;1014;51.960;8.542;2024-02-16T07:36:44;23.23;;;21.77;;
2019;SDS011;1014;51.960;8.542;2024-02-16T07:39:11;22.20;;;21.00;;
2019;SDS011;1014;51.960;8.542;2024-02-16T07:41:38;22.43;;;21.27;;
2019;SDS011;1014;51.960;8.542;2024-02-16T07:44:05;24.17;;;22.33;;
2019;SDS011;1014;51.960;8.542;2024-02-16T07:46:32;23.67;;;22.37;;
2019;SDS011;1014;51.960;8.542;2024-02-16T07:49:00;23.30;;;22.20;;
2019;SDS011;1014;51.960;8.542;2024-02-16T07:51:30;22.73;;;21.43;;
2019;SDS011;1014;51.960;8.542;2024-02-16T07:53:57;23.33;;;22.20;;
2019;SDS011;1014;51.960;8.542;2024-02-16T07:56:24;22.50;;;21.30;;
2019;SDS011;1014;51.960;8.542;2024-02-16T07:58:51;22.73;;;21.63;;
2019;SDS011;1014;51.960;8.542;2024-02-16T08:01:18;23.53;;;22.40;;
2019;SDS011;1014;51.960;8.542;2024-02-16T08:03:45;22.87;;;21.40;;
2019;SDS011;1014;51.960;8.542;2024-02-16T08:06:13;22.53;;;21.13;;
2019;SDS011;1014;51.960;8.542;2024-02-16T08:08:42;21.47;;;20.40;;
2019;SDS011;1014;51.960;8.542;2024-02-16T08:11:09;22.73;;;21.33;;
2019;SDS011;1014;51.960;8.542;2024-02-16T08:13:36;20.97;;;19.87;;
2019;SDS011;1014;51.960;8.542;2024-02-16T08:16:04;22.97;;;21.57;;
2019;SDS011;1014;51.960;8.542;2024-02-16T08:18:32;21.23;;;20.13;;
2019;SDS011;1014;51.960;8.542;2024-02-16T08:20:59;22.03;;;20.83;;
2019;SDS011;1014;51.960;8.542;2024-02-16T08:23:26;22.33;;;21.03;;
2019;SDS011;1014;51.960;8.542;2024-02-16T08:25:54;22.23;;;20.83;;
2019;SDS011;1014;51.960;8.542;2024-02-16T08:28:22;22.40;;;21.10;;
2019;SDS011;1014;51.960;8.542;2024-02-16T08:30:49;21.73;;;20.53;;
2019;SDS011;1014;51.960;8.542;2024-02-16T08:33:16;22.60;;;21.17;;
2019;SDS011;1014;51.960;8.542;2024-02-16T08:35:43;22.70;;;21.33;;
2019;SDS011;1014;51.960;8.542;2024-02-16T08:38:10;21.03;;;19.73;;
2019;SDS011;1014;51.960;8.542;2024-02-16T08:40:38;21.60;;;20.40;;
2019;SDS011;1014;51.960;8.542;2024-02-16T08:43:06;21.80;;;20.50;;
2019;SDS011;1014;51.960;8.542;2024-02-16T08:45:33;21.07;;;19.97;;
2019;SDS011;1014;51.960;8.542;2024-02-16T08:48:01;23.40;;;22.10;;
2019;SDS011;1014;51.960;8.542;2024-02-16T08:50:28;22.00;;;20.80;;
2019;SDS011;1014;51.960;8.542;2024-02-16T08:52:56;22.73;;;21.33;;
2019;SDS011;1014;51.960;8.542;2024-02-16T08:55:23;21.83;;;20.60;;
2019;SDS011;1014;51.960;8.542;2024-02-16T08:57:50;20.17;;;19.07;;
2019;SDS011;1014;51.960;8.542;2024-02-16T09:00:18;20.17;;;19.07;;
2019;SDS011;1014;51.960;8.542;2024-02-16T09:02:46;21.30;;;20.13;;
2019;SDS011;1014;51.960;8.542;2024-02-16T09:05:13;21.97;;;20.50;;
2019;SDS011;1014;51.960;8.542;2024-02-16T09:07:40;20.93;;;19.77;;
2019;SDS011;1014;51.960;8.542;2024-02-16T09:10:07;19.80;;;18.60;;
2019;SDS011;1014;51.960;8.542;2024-02-16T09:12:34;19.83;;;18.70;;
2019;SDS011;1014;51.960;8.542;2024-02-16T09:15:01;19.03;;;18.07;;
2019;SDS011;1014;51.960;8.542;2024-02-16T09:17:30;19.90;;;18.77;;
2019;SDS011;1014;51.960;8.542;2024-02-16T09:19:57;18.73;;;17.73;;
2019;SDS011;1014;51.960;8.542;2024-02-16T09:22:24;20.33;;;19.23;;
2019;SDS011;1014;51.960;8.542;2024-02-16T09:24:51;20.30;;;18.90;;
2019;SDS011;1014;51.960;8.542;2024-02-16T09:27:19;18.80;;;17.90;;
2019;SDS011;1014;51.960;8.542;2024-02-16T09:29:49;19.37;;;18.47;;
2019;SDS011;1014;51.960;8.542;2024-02-16T09:32:16;18.70;;;17.60;;
2019;SDS011;1014;51.960;8.542;2024-02-16T09:34:44;19.77;;;18.67;;
2019;SDS011;1014;51.960;8.542;2024-02-16T09:37:11;21.07;;;19.93;;
2019;SDS011;1014;51.960;8.542;2024-02-16T09:39:45;20.20;;;19.20;;
2019;SDS011;1014;51.960;8.542;2024-02-16T09:42:12;19.43;;;18.43;;
2019;SDS011;1014;51.960;8.542;2024-02-16T09:44:41;20.30;;;19.30;;
2019;SDS011;1014;51.960;8.542;2024-02-16T09:47:09;19.90;;;18.90;;
2019;SDS011;1014;51.960;8.542;2024-02-16T09:49:38;20.40;;;19.40;;
2019;SDS011;1014;51.960;8.542;2024-02-16T09:52:06;19.73;;;18.73;;
2019;SDS011;1014;51.960;8.542;2024-02-16T09:54:35;19.67;;;18.50;;
2019;SDS011;1014;51.960;8.542;2024-02-16T09:57:03;20.37;;;19.07;;
2019;SDS011;1014;51.960;8.542;2024-02-16T09:59:30;20.53;;;19.53;;
2019;SDS011;1014;51.960;8.542;2024-02-16T10:02:00;20.27;;;19.20;;
2019;SDS011;1014;51.960;8.542;2024-02-16T10:04:28;20.20;;;19.20;;
2019;SDS011;1014;51.960;8.542;2024-02-16T10:06:55;20.17;;;19.17;;
2019;SDS011;1014;51.960;8.542;2024-02-16T10:09:24;18.27;;;17.30;;
2019;SDS011;1014;51.960;8.542;2024-02-16T10:11:51;18.50;;;17.60;;
2019;SDS011;1014;51.960;8.542;2024-02-16T10:14:18;19.47;;;18.50;;
2019;SDS011;1014;51.960;8.542;2024-02-16T10:16:45;18.33;;;17.43;;
2019;SDS011;1014;51.960;8.542;2024-02-16T10:19:13;19.63;;;18.53;;
2019;SDS011;1014;51.960;8.542;2024-02-16T10:21:40;18.80;;;17.60;;
2019;SDS011;1014;51.960;8.542;2024-02-16T10:24:08;20.33;;;19.27;;
2019;SDS011;1014;51.960;8.542;2024-02-16T10:26:37;20.53;;;19.53;;
2019;SDS011;1014;51.960;8.542;2024-02-16T10:29:04;20.80;;;18.90;;
2019;SDS011;1014;51.960;8.542;2024-02-16T10:31:33;18.80;;;17.90;;
2019;SDS011;1014;51.960;8.542;2024-02-16T10:34:00;19.33;;;18.30;;
2019;SDS011;1014;51.960;8.542;2024-02-16T10:36:30;20.00;;;18.80;;
2019;SDS011;1014;51.960;8.542;2024-02-16T10:38:58;19.63;;;18.47;;
2019;SDS011;1014;51.960;8.542;2024-02-16T10:41:29;18.60;;;17.70;;
2019;SDS011;1014;51.960;8.542;2024-02-16T10:43:58;19.40;;;18.20;;
2019;SDS011;1014;51.960;8.542;2024-02-16T10:46:25;19.40;;;18.30;;
2019;SDS011;1014;51.960;8.542;2024-02-16T10:48:52;19.37;;;18.37;;
2019;SDS011;1014;51.960;8.542;2024-02-16T10:51:20;19.87;;;18.60;;
2019;SDS011;1014;51.960;8.542;2024-02-16T10:53:47;19.23;;;18.23;;
2019;SDS011;1014;51.960;8.542;2024-02-16T10:56:15;20.20;;;18.80;;
2019;SDS011;1014;51.960;8.542;2024-02-16T10:58:41;19.47;;;18.37;;
2019;SDS011;1014;51.960;8.542;2024-02-16T11:01:10;19.67;;;18.47;;
2019;SDS011;1014;51.960;8.542;2024-02-16T11:03:37;18.93;;;17.80;;
2019;SDS011;1014;51.960;8.542;2024-02-16T11:06:11;19.33;;;18.33;;
2019;SDS011;1014;51.960;8.542;2024-02-16T11:08:41;18.43;;;17.53;;
2019;SDS011;1014;51.960;8.542;2024-02-16T11:11:08;19.57;;;18.43;;
2019;SDS011;1014;51.960;8.542;2024-02-16T11:13:37;19.70;;;18.53;;
2019;SDS011;1014;51.960;8.542;2024-02-16T11:16:06;19.37;;;18.10;;
2019;SDS011;1014;51.960;8.542;2024-02-16T11:18:38;18.63;;;17.70;;
2019;SDS011;1014;51.960;8.542;2024-02-16T11:21:06;19.70;;;18.30;;
2019;SDS011;1014;51.960;8.542;2024-02-16T11:23:34;20.37;;;19.27;;
2019;SDS011;1014;51.960;8.542;2024-02-16T11:26:01;19.07;;;18.00;;
2019;SDS011;1014;51.960;8.542;2024-02-16T11:28:28;19.93;;;18.73;;
2019;SDS011;1014;51.960;8.542;2024-02-16T11:30:57;20.10;;;18.70;;
2019;SDS011;1014;51.960;8.542;2024-02-16T11:33:24;19.30;;;18.20;;
2019;SDS011;1014;51.960;8.542;2024-02-16T11:35:54;18.60;;;17.57;;
2019;SDS011;1014;51.960;8.542;2024-02-16T11:38:21;18.90;;;17.90;;
2019;SDS011;1014;51.960;8.542;2024-02-16T11:40:55;19.73;;;18.43;;
2019;SDS011;1014;51.960;8.542;2024-02-16T11:43:22;20.10;;;18.90;;
2019;SDS011;1014;51.960;8.542;2024-02-16T11:45:49;19.97;;;18.77;;
2019;SDS011;1014;51.960;8.542;2024-02-16T11:48:20;19.63;;;18.43;;
2019;SDS011;1014;51.960;8.542;2024-02-16T11:50:48;19.27;;;18.17;;
2019;SDS011;1014;51.960;8.542;2024-02-16T11:53:17;20.03;;;18.60;;
2019;SDS011;1014;51.960;8.542;2024-02-16T11:55:46;19.73;;;18.43;;
2019;SDS011;1014;51.960;8.542;2024-02-16T11:58:14;20.23;;;18.97;;
2019;SDS011;1014;51.960;8.542;2024-02-16T12:00:41;19.90;;;18.60;;
2019;SDS011;1014;51.960;8.542;2024-02-16T12:03:08;20.10;;;18.80;;
2019;SDS011;1014;51.960;8.542;2024-02-16T12:05:35;20.77;;;19.47;;
2019;SDS011;1014;51.960;8.542;2024-02-16T12:08:02;19.50;;;18.40;;
2019;SDS011;1014;51.960;8.542;2024-02-16T12:10:31;20.80;;;19.50;;
2019;SDS011;1014;51.960;8.542;2024-02-16T12:12:58;19.30;;;18.13;;
2019;SDS011;1014;51.960;8.542;2024-02-16T12:15:25;19.70;;;18.50;;
2019;SDS011;1014;51.960;8.542;2024-02-16T12:17:59;18.80;;;17.57;;
2019;SDS011;1014;51.960;8.542;2024-02-16T12:20:26;19.60;;;18.27;;
2019;SDS011;1014;51.960;8.542;2024-02-16T12:22:53;18.60;;;17.60;;
2019;SDS011;1014;51.960;8.542;2024-02-16T12:25:20;18.93;;;17.70;;
2019;SDS011;1014;51.960;8.542;2024-02-16T12:27:49;20.77;;;18.97;;
2019;SDS011;1014;51.960;8.542;2024-02-16T12:30:16;19.33;;;18.07;;
2019;SDS011;1014;51.960;8.542;2024-02-16T12:32:43;18.80;;;17.70;;
2019;SDS011;1014;51.960;8.542;2024-02-16T12:35:10;18.70;;;17.80;;
2019;SDS011;1014;51.960;8.542;2024-02-16T12:37:37;18.40;;;17.40;;
2019;SDS011;1014;51.960;8.542;2024-02-16T12:40:04;19.87;;;18.47;;
2019;SDS011;1014;51.960;8.542;2024-02-16T12:42:32;19.60;;;18.10;;
2019;SDS011;1014;51.960;8.542;2024-02-16T12:45:00;24.97;;;20.90;;
2019;SDS011;1014;51.960;8.542;2024-02-16T12:47:27;19.03;;;17.93;;
2019;SDS011;1014;51.960;8.542;2024-02-16T12:49:55;21.87;;;20.23;;
2019;SDS011;1014;51.960;8.542;2024-02-16T12:52:23;21.37;;;19.67;;
2019;SDS011;1014;51.960;8.542;2024-02-16T12:54:51;20.03;;;18.67;;
2019;SDS011;1014;51.960;8.542;2024-02-16T12:57:18;19.63;;;18.30;;
2019;SDS011;1014;51.960;8.542;2024-02-16T12:59:45;20.27;;;18.90;;
2019;SDS011;1014;51.960;8.542;2024-02-16T13:02:13;19.60;;;18.50;;
2019;SDS011;1014;51.960;8.542;2024-02-16T13:04:40;19.80;;;18.47;;
2019;SDS011;1014;51.960;8.542;2024-02-16T13:07:07;19.50;;;18.30;;
2019;SDS011;1014;51.960;8.542;2024-02-16T13:09:34;21.03;;;19.63;;
2019;SDS011;1014;51.960;8.542;2024-02-16T13:12:01;21.53;;;19.70;;
2019;SDS011;1014;51.960;8.542;2024-02-16T13:14:29;19.93;;;18.53;;
2019;SDS011;1014;51.960;8.542;2024-02-16T13:16:56;20.23;;;19.03;;
2019;SDS011;1014;51.960;8.542;2024-02-16T13:19:25;21.73;;;19.90;;
2019;SDS011;1014;51.960;8.542;2024-02-16T13:21:52;19.93;;;18.50;;
2019;SDS011;1014;51.960;8.542;2024-02-16T13:24:19;21.90;;;20.27;;
2019;SDS011;1014;51.960;8.542;2024-02-16T13:26:46;20.30;;;19.10;;
2019;SDS011;1014;51.960;8.542;2024-02-16T13:29:13;21.17;;;19.67;;
2019;SDS011;1014;51.960;8.542;2024-02-16T13:31:40;21.97;;;20.30;;
2019;SDS011;1014;51.960;8.542;2024-02-16T13:34:07;21.07;;;19.53;;
2019;SDS011;1014;51.960;8.542;2024-02-16T13:36:36;22.03;;;20.40;;
2019;SDS011;1014;51.960;8.542;2024-02-16T13:39:03;21.77;;;20.37;;
2019;SDS011;1014;51.960;8.542;2024-02-16T13:41:30;23.37;;;21.43;;
2019;SDS011;1014;51.960;8.542;2024-02-16T13:43:57;21.40;;;20.00;;
2019;SDS011;1014;51.960;8.542;2024-02-16T13:46:24;21.43;;;19.93;;
2019;SDS011;1014;51.960;8.542;2024-02-16T13:48:51;20.90;;;19.40;;
2019;SDS011;1014;51.960;8.542;2024-02-16T13:51:19;22.20;;;20.67;;
2019;SDS011;1014;51.960;8.542;2024-02-16T13:53:48;23.70;;;22.20;;
2019;SDS011;1014;51.960;8.542;2024-02-16T13:56:16;21.30;;;19.80;;
2019;SDS011;1014;51.960;8.542;2024-02-16T13:58:43;21.13;;;19.63;;
2019;SDS011;1014;51.960;8.542;2024-02-16T14:01:12;24.13;;;22.33;;
2019;SDS011;1014;51.960;8.542;2024-02-16T14:03:39;24.70;;;22.90;;
2019;SDS011;1014;51.960;8.542;2024-02-16T14:06:06;23.50;;;21.83;;
2019;SDS011;1014;51.960;8.542;2024-02-16T14:08:35;24.33;;;22.73;;
2019;SDS011;1014;51.960;8.542;2024-02-16T14:11:04;26.60;;;24.57;;
2019;SDS011;1014;51.960;8.542;2024-02-16T14:13:31;25.53;;;23.73;;
2019;SDS011;1014;51.960;8.542;2024-02-16T14:15:58;23.50;;;21.90;;
2019;SDS011;1014;51.960;8.542;2024-02-16T14:18:25;26.53;;;24.53;;
2019;SDS011;1014;51.960;8.542;2024-02-16T14:20:52;28.90;;;26.57;;
2019;SDS011;1014;51.960;8.542;2024-02-16T14:23:19;23.67;;;21.60;;
2019;SDS011;1014;51.960;8.542;2024-02-16T14:25:46;27.83;;;25.50;;
2019;SDS011;1014;51.960;8.542;2024-02-16T14:28:14;27.70;;;25.60;;
2019;SDS011;1014;51.960;8.542;2024-02-16T14:30:57;30.37;;;27.53;;
2019;SDS011;1014;51.960;8.542;2024-02-16T14:33:24;29.27;;;27.03;;
2019;SDS011;1014;51.960;8.542;2024-02-16T14:35:51;28.17;;;25.63;;
2019;SDS011;1014;51.960;8.542;2024-02-16T14:38:18;26.57;;;24.10;;
2019;SDS011;1014;51.960;8.542;2024-02-16T14:40:45;29.77;;;27.00;;
2019;SDS011;1014;51.960;8.542;2024-02-16T14:43:14;28.97;;;26.90;;
2019;SDS011;1014;51.960;8.542;2024-02-16T14:45:41;26.73;;;24.93;;
2019;SDS011;1014;51.960;8.542;2024-02-16T14:48:08;28.10;;;25.67;;
2019;SDS011;1014;51.960;8.542;2024-02-16T14:50:36;24.57;;;22.70;;